This is the latest recevied weather packets stored in our database for station/object KC8P. If no packets are shown the sender has not sent any weather packets the latest 10 day(s).
| Time | Temp. | Humidity | Pressure | Rain* | Wind** | Luminosity | Snow |
|---|---|---|---|---|---|---|---|
| 1778169424 | 11.11° C | 46% | 1012.1 hPa | 0 mm | - | 334 W/m² | - |
| 1778169358 | 11.67° C | 47% | 1012.1 hPa | 0 mm | - | 224 W/m² | - |
| 1778169293 | 11.67° C | 48% | 1012.1 hPa | 0 mm | - | 200 W/m² | - |
| 1778169226 | 11.11° C | 48% | 1012.1 hPa | 0 mm | - | 186 W/m² | - |
| 1778169161 | 11.11° C | 48% | 1011.8 hPa | 0 mm | - | 182 W/m² | - |
| 1778169095 | 11.11° C | 48% | 1012.1 hPa | 0 mm | - | 185 W/m² | - |
| 1778169029 | 11.11° C | 46% | 1012.1 hPa | 0 mm | - | 200 W/m² | - |
| 1778168964 | 11.11° C | 47% | 1012.1 hPa | 0 mm | - | 633 W/m² | - |
| 1778168898 | 10.56° C | 49% | 1011.8 hPa | 0 mm | - | 713 W/m² | - |
| 1778168833 | 10.56° C | 48% | 1012.1 hPa | 0 mm | - | 956 W/m² | - |
| 1778168767 | 11.11° C | 47% | 1012.1 hPa | 0 mm | - | 399 W/m² | - |
| 1778168701 | 11.11° C | 48% | 1012.1 hPa | 0 mm | - | 313 W/m² | - |
| 1778168636 | 11.11° C | 47% | 1012.1 hPa | 0 mm | - | 279 W/m² | - |
| 1778168574 | 11.11° C | 49% | 1012.1 hPa | 0 mm | - | 260 W/m² | - |
| 1778168504 | 11.11° C | 48% | 1012.1 hPa | 0 mm | - | 225 W/m² | - |
| 1778168438 | 11.11° C | 47% | 1012.4 hPa | 0 mm | - | 207 W/m² | - |
| 1778168415 | 11.67° C | 46% | 1012.1 hPa | 0 mm | - | 192 W/m² | - |
| 1778168372 | 11.67° C | 46% | 1012.1 hPa | 0 mm | - | 192 W/m² | - |
| 1778168308 | 11.67° C | 46% | 1012.1 hPa | 0 mm | - | 180 W/m² | - |
| 1778168241 | 12.22° C | 46% | 1012.1 hPa | 0 mm | - | 180 W/m² | - |
| 1778168192 | 11.67° C | - | - | 0 mm | - | - | - |
| 1778168175 | 12.22° C | 45% | 1012.1 hPa | 0 mm | - | 211 W/m² | - |
| 1778168110 | 12.22° C | 48% | 1012.4 hPa | 0 mm | - | 891 W/m² | - |
| 1778168095 | 11.67° C | 47% | 1012.1 hPa | 0 mm | - | 835 W/m² | - |
| 1778168064 | 11.67° C | 45% | 1012.1 hPa | 0 mm | - | 235 W/m² | - |
* Rain latest hour (hover to see other rain measurements)
** Current wind speed in m/s (hover to see current wind gust speed)